Urbana, IN (46990)

7:37 AM EDT on August 23, 2014 (GMT -0400)
Wabash Co. Central Dispatch | Change Station
CLOSE
Current Station
Personal Weather Station
Location: Wabash, IN
Elevation: 764 ft
Nearby Weather Stations
Active Advisory: Flood Warning, Special Statement Active Notice: Record Report

Elev 764 ft 40.82 °N, 85.80 °W | Updated 4 seconds ago

Rain
Rain
71.1 °F
Feels Like 71.1 °F
N
0.0
Wind Variable Wind from South
Gusts 0.0 mph

Today
High -- | Low -- °F
--% Chance of Precip.
Yesterday
High -- | Low -- °F
Precip. -- in
7:00 AM 8:29 PM
Waning Crescent, 4% visible
Pressure 30.01 in
Visibility 0.8 miles
Clouds Overcast 300 ft
Dew Point 70 °F
Humidity 97%
Rainfall 0.02 in
Snow Depth Not available.
UV 0 out of 12
Pollen 9.30 out of 12
Air Quality Not available.
Flu Activity Not available.
METAR KASW 231115Z AUTO 00000KT 3/4SM BR OVC003 20/20 A3001 RMK AO2

More Conditions Fewer Conditions

Pressure 30.01 in
Visibility 0.8 miles
Clouds Overcast 300 ft
Dew Point 70 °F
Humidity 97%
Rainfall 0.02 in
Snow Depth Not available.
UV 0 out of 12
Pollen 9.30 out of 12
Air Quality Not available.
Flu Activity Not available.
METAR KASW 231115Z AUTO 00000KT 3/4SM BR OVC003 20/20 A3001 RMK AO2

More Conditions Fewer Conditions

10-Day Weather Forecast

Almanac

Astronomy

Aug. 23, 2014 Rise Set
Actual Time 7:00 AM EDT 8:29 PM EDT
Civil Twilight 6:31 AM EDT 8:58 PM EDT
Nautical Twilight 5:57 AM EDT 9:32 PM EDT
Astronomical Twilight 5:20 AM EDT 10:09 PM EDT
Moon 5:16 AM EDT 7:13 PM EDT
Length of Visible Light 14h 26m
Length of Day
13h 28m
Tomorrow will be 2m 31s shorter.
Waning Crescent, 4% of the Moon is Illuminated
Today
Waning Crescent
Aug 25
New
Sep 2
First Quarter
Sep 8
Full
Sep 15
Last Quarter

Today's Extremes

State Highs State Lows

Community

WunderPhotos

Upload Photos

1,746,418 photos uploaded!

WunderBlogs® & News

By Dr. Jeff Masters
Director of Meteorology, Weather Underground
By Kari Strenfel
Meteorologist, Weather Underground
By Christopher C. Burt
Weather Historian, Weather Underground
August 23, 2014
August 23, 2014
August 23, 2014

Nearby

Snow Depth

Station Depth Elevation
No new snow has been reported.

Earthquake Activity

City Distance Mag. Time & Date
No recent earthquake activity has been reported nearby.
Minimum magnitude displayed is 2.5.

Coastal Water Temperatures

Place Temperature
No Stations Reporting

Nearby Weather Stations